createdAt,value
2018-04-23T00:00:04.002Z,196
2018-04-23T00:00:16.443Z,175
2018-04-23T00:00:28.932Z,206
2018-04-23T00:00:41.379Z,186
2018-04-23T00:00:53.845Z,157
2018-04-23T00:01:06.265Z,182
2018-04-23T00:01:18.698Z,151
2018-04-23T00:01:31.119Z,191
2018-04-23T00:01:43.512Z,165
2018-04-23T00:01:55.928Z,200
2018-04-23T00:02:08.325Z,204
2018-04-23T00:02:20.756Z,227
2018-04-23T00:02:33.195Z,153
2018-04-23T00:02:45.589Z,181
2018-04-23T00:02:58.024Z,178
2018-04-23T00:03:10.457Z,190
2018-04-23T00:03:22.873Z,141
2018-04-23T00:03:35.282Z,223
2018-04-23T00:03:47.722Z,163
2018-04-23T00:04:00.129Z,169
2018-04-23T00:04:12.535Z,164
2018-04-23T00:04:24.940Z,182
2018-04-23T00:04:37.328Z,217
2018-04-23T00:04:49.717Z,150
2018-04-23T00:05:02.115Z,150
2018-04-23T00:05:14.590Z,202
2018-04-23T00:05:27.068Z,213
2018-04-23T00:05:39.466Z,239
2018-04-23T00:05:51.856Z,140
2018-04-23T00:06:04.296Z,161
2018-04-23T00:06:16.719Z,207
2018-04-23T00:06:29.120Z,214
2018-04-23T00:06:41.521Z,157
2018-04-23T00:06:53.939Z,202
2018-04-23T00:07:06.346Z,214
2018-04-23T00:07:18.747Z,213
2018-04-23T00:07:31.227Z,157
2018-04-23T00:07:43.621Z,195
2018-04-23T00:07:56.030Z,190
2018-04-23T00:08:08.434Z,218
2018-04-23T00:08:20.853Z,198
2018-04-23T00:08:33.263Z,199
2018-04-23T00:08:45.651Z,206
2018-04-23T00:08:58.051Z,202
2018-04-23T00:09:10.471Z,196
2018-04-23T00:09:22.894Z,192
2018-04-23T00:09:35.292Z,214
2018-04-23T00:09:47.695Z,189
2018-04-23T00:10:00.111Z,173
2018-04-23T00:10:12.505Z,119
2018-04-23T00:10:24.956Z,182
2018-04-23T00:10:37.486Z,199
2018-04-23T00:10:49.886Z,220
2018-04-23T00:11:02.321Z,205
2018-04-23T00:11:14.743Z,207
2018-04-23T00:11:27.157Z,185
2018-04-23T00:11:39.572Z,189
2018-04-23T00:11:52.113Z,242
2018-04-23T00:12:04.529Z,192
2018-04-23T00:12:16.947Z,182
2018-04-23T00:12:29.346Z,182
2018-04-23T00:12:41.747Z,166
2018-04-23T00:12:54.319Z,149
2018-04-23T00:13:06.732Z,187
2018-04-23T00:13:19.122Z,168
2018-04-23T00:13:31.597Z,170
2018-04-23T00:13:43.991Z,177
2018-04-23T00:13:56.460Z,215
2018-04-23T00:14:08.881Z,198
2018-04-23T00:14:21.288Z,198
2018-04-23T00:14:33.699Z,209
2018-04-23T00:14:46.098Z,209
2018-04-23T00:14:58.479Z,227
2018-04-23T00:15:10.872Z,219
2018-04-23T00:15:23.309Z,170
2018-04-23T00:15:35.761Z,179
2018-04-23T00:15:48.206Z,181
2018-04-23T00:16:00.609Z,195
2018-04-23T00:16:13.004Z,195
2018-04-23T00:16:25.402Z,201
2018-04-23T00:16:37.792Z,281
2018-04-23T00:16:50.198Z,159
2018-04-23T00:17:02.618Z,218
2018-04-23T00:17:15.037Z,181
2018-04-23T00:17:27.424Z,184
2018-04-23T00:17:39.862Z,190
2018-04-23T00:17:52.282Z,191
2018-04-23T00:18:04.708Z,170
2018-04-23T00:18:17.108Z,175
2018-04-23T00:18:29.871Z,219
2018-04-23T00:18:42.263Z,217
2018-04-23T00:18:54.655Z,218
2018-04-23T00:19:07.056Z,217
2018-04-23T00:19:19.452Z,217
2018-04-23T00:19:31.855Z,211
2018-04-23T00:19:44.261Z,177
2018-04-23T00:19:56.819Z,186
2018-04-23T00:20:09.275Z,198
2018-04-23T00:20:21.678Z,149
2018-04-23T00:20:34.095Z,165
2018-04-23T00:20:46.522Z,175
2018-04-23T00:20:58.913Z,163
2018-04-23T00:21:11.310Z,165
2018-04-23T00:21:23.755Z,188
2018-04-23T00:21:36.156Z,171
2018-04-23T00:21:48.545Z,141
2018-04-23T00:22:00.930Z,187
2018-04-23T00:22:13.370Z,182
2018-04-23T00:22:25.775Z,180
2018-04-23T00:22:38.192Z,182
2018-04-23T00:22:50.585Z,198
2018-04-23T00:23:03.171Z,174
2018-04-23T00:23:15.917Z,138
2018-04-23T00:23:28.353Z,148
2018-04-23T00:23:40.757Z,153
2018-04-23T00:23:53.167Z,157
2018-04-23T00:24:05.611Z,186
2018-04-23T00:24:18.026Z,178
2018-04-23T00:24:30.426Z,186
2018-04-23T00:24:42.849Z,185
2018-04-23T00:24:55.262Z,183
2018-04-23T00:25:07.678Z,181
2018-04-23T00:25:20.070Z,181
2018-04-23T00:25:32.570Z,181
2018-04-23T00:25:44.998Z,181
2018-04-23T00:25:57.440Z,181
2018-04-23T00:26:09.851Z,181
2018-04-23T00:26:22.315Z,181
2018-04-23T00:26:34.771Z,169
2018-04-23T00:26:47.161Z,169
2018-04-23T00:26:59.557Z,163
2018-04-23T00:27:11.968Z,163
2018-04-23T00:27:24.399Z,163
2018-04-23T00:27:36.784Z,163
2018-04-23T00:27:49.170Z,163
2018-04-23T00:28:01.586Z,163
2018-04-23T00:28:14.038Z,175
2018-04-23T00:28:26.497Z,175
2018-04-23T00:28:38.896Z,175
2018-04-23T00:28:51.298Z,175
2018-04-23T00:29:03.692Z,175
2018-04-23T00:29:16.097Z,175
2018-04-23T00:29:28.501Z,167
2018-04-23T00:29:40.903Z,140
2018-04-23T00:29:53.479Z,159
2018-04-23T00:30:05.927Z,176
2018-04-23T00:30:18.327Z,178
2018-04-23T00:30:30.725Z,178
2018-04-23T00:30:43.160Z,171
2018-04-23T00:30:55.549Z,171
2018-04-23T00:31:07.947Z,157
2018-04-23T00:31:20.356Z,164
2018-04-23T00:31:32.768Z,157
2018-04-23T00:31:45.179Z,159
2018-04-23T00:31:57.622Z,142
2018-04-23T00:32:10.071Z,138
2018-04-23T00:32:22.484Z,133
2018-04-23T00:32:34.889Z,157
2018-04-23T00:32:47.289Z,167
2018-04-23T00:32:59.722Z,160
2018-04-23T00:33:12.114Z,157
2018-04-23T00:33:24.576Z,175
2018-04-23T00:33:36.976Z,150
2018-04-23T00:33:49.385Z,153
2018-04-23T00:34:01.781Z,142
2018-04-23T00:34:14.194Z,171
2018-04-23T00:34:26.718Z,163
2018-04-23T00:34:39.169Z,160
2018-04-23T00:34:51.595Z,160
2018-04-23T00:35:04.030Z,149
2018-04-23T00:35:16.405Z,167
2018-04-23T00:35:28.810Z,178
2018-04-23T00:35:41.259Z,183
2018-04-23T00:35:53.647Z,178
2018-04-23T00:36:06.062Z,171
2018-04-23T00:36:18.458Z,171
2018-04-23T00:36:30.842Z,171
2018-04-23T00:36:43.273Z,178
2018-04-23T00:36:55.662Z,180
2018-04-23T00:37:08.077Z,179
2018-04-23T00:37:20.480Z,178
2018-04-23T00:37:32.869Z,178
2018-04-23T00:37:45.254Z,178
2018-04-23T00:37:57.659Z,173
2018-04-23T00:38:10.060Z,173
2018-04-23T00:38:22.474Z,168
2018-04-23T00:38:34.879Z,168
2018-04-23T00:38:47.290Z,168
2018-04-23T00:38:59.665Z,168
2018-04-23T00:39:12.083Z,169
2018-04-23T00:39:24.505Z,169
2018-04-23T00:39:36.975Z,170
2018-04-23T00:39:49.385Z,169
2018-04-23T00:40:01.837Z,169
2018-04-23T00:40:14.247Z,170
2018-04-23T00:40:26.665Z,169
2018-04-23T00:40:39.104Z,170
2018-04-23T00:40:51.515Z,170
2018-04-23T00:41:03.911Z,169
2018-04-23T00:41:16.341Z,170
2018-04-23T00:41:28.721Z,170
2018-04-23T00:41:41.147Z,170
2018-04-23T00:41:53.544Z,169
2018-04-23T00:42:05.955Z,169
2018-04-23T00:42:18.398Z,169
2018-04-23T00:42:30.808Z,169
2018-04-23T00:42:43.213Z,169
2018-04-23T00:42:55.603Z,169
2018-04-23T00:43:08.010Z,169
2018-04-23T00:43:20.400Z,169
2018-04-23T00:43:32.793Z,169
2018-04-23T00:43:45.198Z,169
2018-04-23T00:43:57.597Z,169
2018-04-23T00:44:10.156Z,169
2018-04-23T00:44:22.540Z,169
2018-04-23T00:44:34.947Z,169
2018-04-23T00:44:47.368Z,169
2018-04-23T00:44:59.778Z,169
2018-04-23T00:45:12.176Z,169
2018-04-23T00:45:24.575Z,169
2018-04-23T00:45:36.979Z,169
2018-04-23T00:45:49.364Z,169
2018-04-23T00:46:01.764Z,169
2018-04-23T00:46:14.181Z,169
2018-04-23T00:46:26.575Z,169
2018-04-23T00:46:39.024Z,169
2018-04-23T00:46:51.429Z,169
2018-04-23T00:47:03.840Z,169
2018-04-23T00:47:16.237Z,169
2018-04-23T00:47:28.628Z,169
2018-04-23T00:47:41.033Z,169
2018-04-23T00:47:53.461Z,169
2018-04-23T00:48:06.039Z,169
2018-04-23T00:48:18.445Z,169
2018-04-23T00:48:30.868Z,169
2018-04-23T00:48:43.272Z,169
2018-04-23T00:48:55.686Z,161
2018-04-23T00:49:08.112Z,160
2018-04-23T00:49:20.505Z,160
2018-04-23T00:49:32.916Z,160
2018-04-23T00:49:45.381Z,160
2018-04-23T00:49:57.885Z,160
2018-04-23T00:50:10.308Z,160
2018-04-23T00:50:22.717Z,160
2018-04-23T00:50:35.138Z,160
2018-04-23T00:50:47.563Z,160
2018-04-23T00:50:59.945Z,160
2018-04-23T00:51:12.350Z,160
2018-04-23T00:51:24.766Z,160
2018-04-23T00:51:37.175Z,160
2018-04-23T00:51:49.571Z,160
2018-04-23T00:52:02.047Z,160
2018-04-23T00:52:14.447Z,160
2018-04-23T00:52:27.127Z,160
2018-04-23T00:52:39.542Z,160
2018-04-23T00:52:51.924Z,160
2018-04-23T00:53:04.307Z,160
2018-04-23T00:53:16.714Z,160
2018-04-23T00:53:29.103Z,160
2018-04-23T00:53:41.506Z,160
2018-04-23T00:53:53.927Z,160
2018-04-23T00:54:06.386Z,160
2018-04-23T00:54:18.785Z,160
2018-04-23T00:54:31.182Z,160
2018-04-23T00:54:43.582Z,160
2018-04-23T00:54:55.959Z,160
2018-04-23T00:55:08.399Z,160
2018-04-23T00:55:20.835Z,160
2018-04-23T00:55:33.293Z,160
2018-04-23T00:55:45.705Z,160
2018-04-23T00:55:58.138Z,160
2018-04-23T00:56:10.553Z,160
2018-04-23T00:56:22.988Z,160
2018-04-23T00:56:35.380Z,160
2018-04-23T00:56:47.780Z,172
2018-04-23T00:57:00.164Z,172
2018-04-23T00:57:12.567Z,172
2018-04-23T00:57:25.008Z,157
2018-04-23T00:57:37.424Z,157
2018-04-23T00:57:49.818Z,157
2018-04-23T00:58:02.234Z,157
2018-04-23T00:58:14.621Z,141
2018-04-23T00:58:27.068Z,149
2018-04-23T00:58:39.488Z,149
2018-04-23T00:58:51.886Z,142
2018-04-23T00:59:04.286Z,142
2018-04-23T00:59:16.695Z,143
2018-04-23T00:59:29.110Z,155
2018-04-23T00:59:41.511Z,161
2018-04-23T00:59:53.923Z,157
2018-04-23T01:00:06.342Z,155
2018-04-23T01:00:18.781Z,153
2018-04-23T01:00:31.209Z,170
2018-04-23T01:00:43.630Z,166
2018-04-23T01:00:56.094Z,166
2018-04-23T01:01:08.541Z,163
2018-04-23T01:01:20.959Z,163
2018-04-23T01:01:33.450Z,163
2018-04-23T01:01:45.882Z,142
2018-04-23T01:01:58.301Z,136
2018-04-23T01:02:10.702Z,136
2018-04-23T01:02:23.363Z,136
2018-04-23T01:02:35.745Z,136
2018-04-23T01:02:48.144Z,136
2018-04-23T01:03:00.586Z,136
2018-04-23T01:03:13.031Z,136
2018-04-23T01:03:25.464Z,136
2018-04-23T01:03:37.851Z,136
2018-04-23T01:03:50.250Z,136
2018-04-23T01:04:02.647Z,136
2018-04-23T01:04:15.075Z,136
2018-04-23T01:04:27.531Z,136
2018-04-23T01:04:39.935Z,136
2018-04-23T01:04:52.336Z,136
2018-04-23T01:05:04.921Z,136
2018-04-23T01:05:17.324Z,136
2018-04-23T01:05:29.786Z,136
2018-04-23T01:05:42.185Z,136
2018-04-23T01:05:54.576Z,136
2018-04-23T01:06:06.990Z,136
2018-04-23T01:06:19.400Z,136
2018-04-23T01:06:31.806Z,136
2018-04-23T01:06:44.229Z,137
2018-04-23T01:06:56.639Z,137
2018-04-23T01:07:09.047Z,137
2018-04-23T01:07:21.448Z,137
2018-04-23T01:07:33.879Z,137
2018-04-23T01:07:46.312Z,147
2018-04-23T01:07:58.772Z,147
2018-04-23T01:08:11.164Z,148
2018-04-23T01:08:23.617Z,148
2018-04-23T01:08:36.023Z,148
2018-04-23T01:08:48.440Z,148
2018-04-23T01:09:00.836Z,148
2018-04-23T01:09:13.242Z,148
2018-04-23T01:09:25.642Z,148
2018-04-23T01:09:38.067Z,148
2018-04-23T01:09:50.476Z,137
2018-04-23T01:10:02.875Z,137
2018-04-23T01:10:15.298Z,147
2018-04-23T01:10:27.704Z,138
2018-04-23T01:10:40.098Z,138
2018-04-23T01:10:52.512Z,124
2018-04-23T01:11:04.925Z,109
2018-04-23T01:11:17.349Z,135
2018-04-23T01:11:29.750Z,152
2018-04-23T01:11:42.157Z,142
2018-04-23T01:11:54.560Z,144
2018-04-23T01:12:06.961Z,139
2018-04-23T01:12:19.369Z,150
2018-04-23T01:12:31.917Z,134
2018-04-23T01:12:44.324Z,157
2018-04-23T01:12:56.713Z,155
2018-04-23T01:13:09.104Z,148
2018-04-23T01:13:21.506Z,140
2018-04-23T01:13:34.143Z,140
2018-04-23T01:13:46.547Z,142
2018-04-23T01:13:58.933Z,142
2018-04-23T01:14:11.348Z,139
2018-04-23T01:14:23.728Z,139
2018-04-23T01:14:36.149Z,139
2018-04-23T01:14:48.553Z,139
2018-04-23T01:15:00.944Z,153
2018-04-23T01:15:13.344Z,153
2018-04-23T01:15:25.733Z,148
2018-04-23T01:15:38.134Z,135
2018-04-23T01:15:50.537Z,113
2018-04-23T01:16:02.949Z,109
2018-04-23T01:16:15.371Z,114
2018-04-23T01:16:27.760Z,113
2018-04-23T01:16:40.168Z,126
2018-04-23T01:16:52.569Z,126
2018-04-23T01:17:04.972Z,160
2018-04-23T01:17:17.378Z,153
2018-04-23T01:17:29.861Z,153
2018-04-23T01:17:42.248Z,146
2018-04-23T01:17:54.656Z,153
2018-04-23T01:18:07.062Z,153
2018-04-23T01:18:19.469Z,153
2018-04-23T01:18:32.404Z,167
2018-04-23T01:18:44.845Z,153
2018-04-23T01:18:57.240Z,150
2018-04-23T01:19:09.651Z,152
2018-04-23T01:19:22.100Z,141
2018-04-23T01:19:34.503Z,177
2018-04-23T01:19:46.928Z,175
2018-04-23T01:19:59.394Z,170
2018-04-23T01:20:11.800Z,143
2018-04-23T01:20:24.207Z,132
2018-04-23T01:20:36.671Z,143
2018-04-23T01:20:49.082Z,150
2018-04-23T01:21:01.476Z,150
2018-04-23T01:21:13.882Z,157
2018-04-23T01:21:26.335Z,135
2018-04-23T01:21:38.733Z,139
2018-04-23T01:21:51.157Z,146
2018-04-23T01:22:03.584Z,169
2018-04-23T01:22:15.981Z,159
2018-04-23T01:22:28.395Z,144
2018-04-23T01:22:40.802Z,148
2018-04-23T01:22:53.323Z,134
2018-04-23T01:23:06.027Z,161
2018-04-23T01:23:18.507Z,153
2018-04-23T01:23:30.908Z,154
2018-04-23T01:23:43.296Z,156
2018-04-23T01:23:55.717Z,157
2018-04-23T01:24:08.133Z,156
2018-04-23T01:24:20.541Z,165
2018-04-23T01:24:32.934Z,160
2018-04-23T01:24:45.350Z,160
2018-04-23T01:24:57.757Z,160
2018-04-23T01:25:10.181Z,161
2018-04-23T01:25:22.611Z,162
2018-04-23T01:25:35.018Z,161
2018-04-23T01:25:47.503Z,161
2018-04-23T01:25:59.887Z,145
2018-04-23T01:26:12.305Z,151
2018-04-23T01:26:24.711Z,151
2018-04-23T01:26:37.127Z,151
2018-04-23T01:26:49.525Z,151
2018-04-23T01:27:01.940Z,151
2018-04-23T01:27:14.334Z,151
2018-04-23T01:27:26.744Z,150
2018-04-23T01:27:39.160Z,158
2018-04-23T01:27:51.619Z,150
2018-04-23T01:28:04.011Z,154
2018-04-23T01:28:16.430Z,154
2018-04-23T01:28:28.956Z,153
2018-04-23T01:28:41.358Z,142
2018-04-23T01:28:53.751Z,142
2018-04-23T01:29:06.155Z,142
2018-04-23T01:29:18.556Z,142
2018-04-23T01:29:31.171Z,156
2018-04-23T01:29:43.573Z,136
2018-04-23T01:29:56.185Z,147
2018-04-23T01:30:08.610Z,147
2018-04-23T01:30:21.001Z,142
2018-04-23T01:30:33.394Z,135
2018-04-23T01:30:45.801Z,141
2018-04-23T01:30:58.202Z,146
2018-04-23T01:31:10.616Z,146
2018-04-23T01:31:23.014Z,144
2018-04-23T01:31:35.423Z,144
2018-04-23T01:31:47.821Z,146
2018-04-23T01:32:00.220Z,146
2018-04-23T01:32:12.610Z,148
2018-04-23T01:32:25.015Z,140
2018-04-23T01:32:37.397Z,152
2018-04-23T01:32:49.803Z,143
2018-04-23T01:33:02.188Z,143
2018-04-23T01:33:14.622Z,143
2018-04-23T01:33:27.012Z,119
2018-04-23T01:33:39.438Z,119
2018-04-23T01:33:51.839Z,132
2018-04-23T01:34:04.230Z,131
2018-04-23T01:34:16.634Z,136
2018-04-23T01:34:29.214Z,136
2018-04-23T01:34:41.607Z,136
2018-04-23T01:34:54.059Z,136
2018-04-23T01:35:06.450Z,136
2018-04-23T01:35:18.896Z,136
2018-04-23T01:35:31.292Z,138
2018-04-23T01:35:43.731Z,140
2018-04-23T01:35:56.118Z,140
2018-04-23T01:36:08.530Z,150
2018-04-23T01:36:20.934Z,149
2018-04-23T01:36:33.349Z,149
2018-04-23T01:36:45.756Z,149
2018-04-23T01:36:58.195Z,149
2018-04-23T01:37:10.577Z,149
2018-04-23T01:37:23.006Z,149
2018-04-23T01:37:35.427Z,148
2018-04-23T01:37:47.854Z,145
2018-04-23T01:38:00.255Z,144
2018-04-23T01:38:12.664Z,144
2018-04-23T01:38:25.071Z,144
2018-04-23T01:38:37.454Z,144
2018-04-23T01:38:49.857Z,144
2018-04-23T01:39:02.264Z,144
2018-04-23T01:39:14.710Z,144
2018-04-23T01:39:27.152Z,152
2018-04-23T01:39:39.549Z,152
2018-04-23T01:39:51.985Z,152
2018-04-23T01:40:04.582Z,152
2018-04-23T01:40:16.984Z,130
2018-04-23T01:40:29.374Z,143
2018-04-23T01:40:41.759Z,142
2018-04-23T01:40:54.163Z,142
2018-04-23T01:41:06.553Z,142
2018-04-23T01:41:18.967Z,142
2018-04-23T01:41:31.389Z,152
2018-04-23T01:41:43.837Z,149
2018-04-23T01:41:56.237Z,142
2018-04-23T01:42:08.629Z,155
2018-04-23T01:42:21.084Z,149
2018-04-23T01:42:33.482Z,156
2018-04-23T01:42:45.906Z,155
2018-04-23T01:42:58.292Z,153
2018-04-23T01:43:10.714Z,153
2018-04-23T01:43:23.118Z,153
2018-04-23T01:43:35.561Z,153
2018-04-23T01:43:47.952Z,152
2018-04-23T01:44:00.395Z,153
2018-04-23T01:44:12.806Z,138
2018-04-23T01:44:25.207Z,138
2018-04-23T01:44:37.587Z,138
2018-04-23T01:44:49.977Z,139
2018-04-23T01:45:02.387Z,144
2018-04-23T01:45:14.793Z,144
2018-04-23T01:45:27.207Z,143
2018-04-23T01:45:39.617Z,143
2018-04-23T01:45:52.001Z,144
2018-04-23T01:46:04.425Z,134
2018-04-23T01:46:16.823Z,134
2018-04-23T01:46:29.226Z,134
2018-04-23T01:46:41.632Z,134
2018-04-23T01:46:54.025Z,134
2018-04-23T01:47:06.422Z,134
2018-04-23T01:47:18.835Z,134
2018-04-23T01:47:31.223Z,134
2018-04-23T01:47:43.637Z,134
2018-04-23T01:47:56.036Z,134
2018-04-23T01:48:08.650Z,134
2018-04-23T01:48:21.079Z,134
2018-04-23T01:48:33.469Z,134
2018-04-23T01:48:45.903Z,134
2018-04-23T01:48:58.315Z,134
2018-04-23T01:49:10.732Z,134
2018-04-23T01:49:23.171Z,134
2018-04-23T01:49:35.601Z,134
2018-04-23T01:49:47.995Z,134
2018-04-23T01:50:00.483Z,134
2018-04-23T01:50:12.903Z,134
2018-04-23T01:50:25.311Z,134
2018-04-23T01:50:37.728Z,134
2018-04-23T01:50:50.118Z,134
2018-04-23T01:51:02.543Z,134
2018-04-23T01:51:14.933Z,134
2018-04-23T01:51:27.324Z,134
2018-04-23T01:51:39.718Z,134
2018-04-23T01:51:52.125Z,134
2018-04-23T01:52:04.542Z,134
2018-04-23T01:52:16.943Z,134
2018-04-23T01:52:29.361Z,134
2018-04-23T01:52:41.776Z,134
2018-04-23T01:52:54.180Z,134
2018-04-23T01:53:06.572Z,134
2018-04-23T01:53:18.972Z,134
2018-04-23T01:53:31.368Z,134
2018-04-23T01:53:43.776Z,134
2018-04-23T01:53:56.174Z,134
2018-04-23T01:54:08.568Z,134
2018-04-23T01:54:20.976Z,134
2018-04-23T01:54:33.414Z,134
2018-04-23T01:54:45.831Z,134
2018-04-23T01:54:58.259Z,134
2018-04-23T01:55:10.694Z,134
2018-04-23T01:55:23.077Z,134
2018-04-23T01:55:35.483Z,134
2018-04-23T01:55:47.901Z,134
2018-04-23T01:56:00.300Z,134
2018-04-23T01:56:12.703Z,134
2018-04-23T01:56:25.122Z,134
2018-04-23T01:56:37.544Z,134
2018-04-23T01:56:49.937Z,134
2018-04-23T01:57:02.461Z,134
2018-04-23T01:57:14.858Z,134
2018-04-23T01:57:27.261Z,134
2018-04-23T01:57:39.672Z,134
2018-04-23T01:57:52.099Z,134
2018-04-23T01:58:04.490Z,134
2018-04-23T01:58:16.900Z,134
2018-04-23T01:58:29.318Z,134
2018-04-23T01:58:41.746Z,134
2018-04-23T01:58:54.167Z,134
2018-04-23T01:59:06.566Z,134
2018-04-23T01:59:19.571Z,134
2018-04-23T01:59:31.964Z,134
2018-04-23T01:59:44.694Z,134
2018-04-23T01:59:57.076Z,134
2018-04-23T02:00:09.603Z,134
2018-04-23T02:00:22.024Z,134
2018-04-23T02:00:34.451Z,134
2018-04-23T02:00:46.865Z,134
2018-04-23T02:00:59.286Z,134
2018-04-23T02:01:11.704Z,134
2018-04-23T02:01:24.168Z,134
2018-04-23T02:01:36.594Z,134
2018-04-23T02:01:49.025Z,134
2018-04-23T02:02:01.457Z,134
2018-04-23T02:02:13.876Z,134
2018-04-23T02:02:26.295Z,134
2018-04-23T02:02:38.696Z,134
2018-04-23T02:02:51.122Z,134
2018-04-23T02:03:03.534Z,134
2018-04-23T02:03:15.968Z,142
2018-04-23T02:03:28.362Z,142
2018-04-23T02:03:40.760Z,142
2018-04-23T02:03:53.184Z,142
2018-04-23T02:04:05.632Z,142
2018-04-23T02:04:18.071Z,142
2018-04-23T02:04:30.455Z,142
2018-04-23T02:04:43.042Z,143
2018-04-23T02:04:55.451Z,143
2018-04-23T02:05:08.024Z,143
2018-04-23T02:05:20.420Z,143
2018-04-23T02:05:32.817Z,143
2018-04-23T02:05:45.206Z,143
2018-04-23T02:05:57.621Z,143
2018-04-23T02:06:10.019Z,143
2018-04-23T02:06:22.445Z,143
2018-04-23T02:06:34.840Z,145
2018-04-23T02:06:47.245Z,145
2018-04-23T02:06:59.653Z,145
2018-04-23T02:07:12.087Z,145
2018-04-23T02:07:24.499Z,145
2018-04-23T02:07:36.961Z,145
2018-04-23T02:07:49.349Z,145
2018-04-23T02:08:01.750Z,145
2018-04-23T02:08:14.152Z,145
2018-04-23T02:08:26.562Z,145
2018-04-23T02:08:39.026Z,145
2018-04-23T02:08:51.440Z,145
2018-04-23T02:09:03.992Z,145
2018-04-23T02:09:16.396Z,145
2018-04-23T02:09:28.799Z,145
2018-04-23T02:09:41.186Z,145
2018-04-23T02:09:53.583Z,145
2018-04-23T02:10:05.980Z,145
2018-04-23T02:10:18.373Z,145
2018-04-23T02:10:30.775Z,145
2018-04-23T02:10:43.167Z,145
2018-04-23T02:10:55.563Z,145
2018-04-23T02:11:08.001Z,145
2018-04-23T02:11:20.401Z,145
2018-04-23T02:11:32.791Z,145
2018-04-23T02:11:45.199Z,145
2018-04-23T02:11:57.609Z,145
2018-04-23T02:12:10.032Z,145
2018-04-23T02:12:22.439Z,145
2018-04-23T02:12:34.855Z,145
2018-04-23T02:12:47.246Z,145
2018-04-23T02:12:59.654Z,145
2018-04-23T02:13:12.065Z,145
2018-04-23T02:13:24.494Z,145
2018-04-23T02:13:36.976Z,145
2018-04-23T02:13:49.385Z,145
2018-04-23T02:14:01.832Z,145
2018-04-23T02:14:14.244Z,147
2018-04-23T02:14:26.654Z,147
2018-04-23T02:14:39.062Z,147
2018-04-23T02:14:51.505Z,147
2018-04-23T02:15:03.911Z,147
2018-04-23T02:15:16.314Z,147
2018-04-23T02:15:28.776Z,147
2018-04-23T02:15:41.203Z,147
2018-04-23T02:15:53.626Z,147
2018-04-23T02:16:06.242Z,147
2018-04-23T02:16:18.862Z,147
2018-04-23T02:16:31.271Z,147
2018-04-23T02:16:43.673Z,147
2018-04-23T02:16:56.064Z,147
2018-04-23T02:17:08.493Z,147
2018-04-23T02:17:20.904Z,147
2018-04-23T02:17:33.300Z,147
2018-04-23T02:17:45.759Z,147
2018-04-23T02:17:58.176Z,147
2018-04-23T02:18:10.641Z,147
2018-04-23T02:18:23.408Z,147
2018-04-23T02:18:35.990Z,147
2018-04-23T02:18:48.388Z,147
2018-04-23T02:19:00.817Z,147
2018-04-23T02:19:13.233Z,147
2018-04-23T02:19:25.633Z,147
2018-04-23T02:19:38.071Z,147
2018-04-23T02:19:50.470Z,147
2018-04-23T02:20:02.949Z,147
2018-04-23T02:20:15.354Z,147
2018-04-23T02:20:27.756Z,147
2018-04-23T02:20:40.176Z,147
2018-04-23T02:20:52.626Z,147
2018-04-23T02:21:05.021Z,147
2018-04-23T02:21:17.420Z,147
2018-04-23T02:21:29.808Z,147
2018-04-23T02:21:42.210Z,147
2018-04-23T02:21:54.592Z,147
2018-04-23T02:22:06.992Z,147
2018-04-23T02:22:19.414Z,147
2018-04-23T02:22:31.843Z,147
2018-04-23T02:22:44.262Z,147
2018-04-23T02:22:57.051Z,147
2018-04-23T02:23:09.535Z,147
2018-04-23T02:23:21.975Z,147
2018-04-23T02:23:34.425Z,147
2018-04-23T02:23:46.811Z,147
2018-04-23T02:23:59.200Z,147
2018-04-23T02:24:11.601Z,147
2018-04-23T02:24:24.058Z,147
2018-04-23T02:24:36.516Z,147
2018-04-23T02:24:48.915Z,146
2018-04-23T02:25:01.308Z,146
2018-04-23T02:25:13.691Z,147
2018-04-23T02:25:26.100Z,151
2018-04-23T02:25:38.512Z,151
2018-04-23T02:25:50.921Z,151
2018-04-23T02:26:03.304Z,151
2018-04-23T02:26:15.688Z,151
2018-04-23T02:26:28.090Z,151
2018-04-23T02:26:40.482Z,151
2018-04-23T02:26:52.880Z,163
2018-04-23T02:27:05.268Z,163
2018-04-23T02:27:17.684Z,163
2018-04-23T02:27:30.074Z,163
2018-04-23T02:27:42.479Z,163
2018-04-23T02:27:54.871Z,163
2018-04-23T02:28:07.285Z,163
2018-04-23T02:28:19.690Z,163
2018-04-23T02:28:32.125Z,148
2018-04-23T02:28:44.545Z,148
2018-04-23T02:28:56.944Z,150
2018-04-23T02:29:09.345Z,150
2018-04-23T02:29:21.731Z,151
2018-04-23T02:29:34.196Z,151
2018-04-23T02:29:46.619Z,151
2018-04-23T02:30:04.118Z,151
2018-04-23T02:30:16.555Z,151
2018-04-23T02:30:28.962Z,151
2018-04-23T02:30:41.467Z,151
2018-04-23T02:30:53.956Z,151
2018-04-23T02:31:06.371Z,151
2018-04-23T02:31:18.789Z,151
2018-04-23T02:31:31.199Z,151
2018-04-23T02:31:43.624Z,151
2018-04-23T02:31:56.047Z,151
2018-04-23T02:32:08.480Z,151
2018-04-23T02:32:20.925Z,151
2018-04-23T02:32:33.379Z,151
2018-04-23T02:32:45.822Z,151
2018-04-23T02:32:58.228Z,151
2018-04-23T02:33:10.642Z,151
2018-04-23T02:33:23.070Z,151
2018-04-23T02:33:35.529Z,151
2018-04-23T02:33:47.939Z,151
2018-04-23T02:34:00.357Z,151
2018-04-23T02:34:12.756Z,151
2018-04-23T02:34:25.355Z,151
2018-04-23T02:34:37.808Z,151
2018-04-23T02:34:50.220Z,151
2018-04-23T02:35:02.650Z,151
2018-04-23T02:35:15.057Z,151
2018-04-23T02:35:27.459Z,151
2018-04-23T02:35:39.895Z,151
2018-04-23T02:35:52.327Z,151
2018-04-23T02:36:04.766Z,151
2018-04-23T02:36:17.180Z,151
2018-04-23T02:36:29.625Z,151
2018-04-23T02:36:42.035Z,151
2018-04-23T02:36:54.500Z,151
2018-04-23T02:37:06.911Z,151
2018-04-23T02:37:19.339Z,151
2018-04-23T02:37:31.753Z,151
2018-04-23T02:37:44.167Z,151
2018-04-23T02:37:56.601Z,151
2018-04-23T02:38:09.024Z,151
2018-04-23T02:38:21.439Z,151
2018-04-23T02:38:33.889Z,151
2018-04-23T02:38:46.304Z,151
2018-04-23T02:38:58.707Z,151
2018-04-23T02:39:11.168Z,151
2018-04-23T02:39:23.872Z,151
2018-04-23T02:39:36.343Z,151
2018-04-23T02:39:48.746Z,151
2018-04-23T02:40:01.241Z,151
2018-04-23T02:40:13.679Z,151
2018-04-23T02:40:26.098Z,151
2018-04-23T02:40:38.546Z,151
2018-04-23T02:40:50.970Z,151
2018-04-23T02:41:03.427Z,151
2018-04-23T02:41:15.826Z,151
2018-04-23T02:41:28.246Z,151
2018-04-23T02:41:40.710Z,151
2018-04-23T02:41:53.126Z,151
2018-04-23T02:42:05.556Z,151
2018-04-23T02:42:17.988Z,151
2018-04-23T02:42:30.394Z,151
2018-04-23T02:42:42.840Z,151
2018-04-23T02:42:55.246Z,151
2018-04-23T02:43:07.654Z,151
2018-04-23T02:43:20.140Z,151
2018-04-23T02:43:32.565Z,151
2018-04-23T02:43:44.983Z,151
2018-04-23T02:43:57.486Z,151
2018-04-23T02:44:09.940Z,151
2018-04-23T02:44:22.365Z,151
2018-04-23T02:44:34.779Z,151
2018-04-23T02:44:47.187Z,151
2018-04-23T02:44:59.673Z,151
2018-04-23T02:45:12.089Z,151
2018-04-23T02:45:24.503Z,151
2018-04-23T02:45:36.914Z,151
2018-04-23T02:45:49.345Z,151
2018-04-23T02:46:01.802Z,151
2018-04-23T02:46:14.222Z,151
2018-04-23T02:46:26.678Z,151
2018-04-23T02:46:39.101Z,151
2018-04-23T02:46:51.561Z,151
2018-04-23T02:47:03.988Z,151
2018-04-23T02:47:16.422Z,151
2018-04-23T02:47:28.845Z,151
2018-04-23T02:47:41.244Z,151
2018-04-23T02:47:53.659Z,151
2018-04-23T02:48:06.206Z,151
2018-04-23T02:48:18.672Z,151
2018-04-23T02:48:31.093Z,151
2018-04-23T02:48:43.525Z,151
2018-04-23T02:48:55.962Z,151
2018-04-23T02:49:08.458Z,151
2018-04-23T02:49:20.892Z,151
2018-04-23T02:49:33.366Z,151
2018-04-23T02:49:45.769Z,151
2018-04-23T02:49:58.376Z,151
2018-04-23T02:50:10.805Z,151
2018-04-23T02:50:23.213Z,151
2018-04-23T02:50:35.608Z,151
2018-04-23T02:50:48.030Z,151
2018-04-23T02:51:00.454Z,151
2018-04-23T02:51:12.890Z,151